createdAt,value
2022-07-30T00:01:04.325Z,2.13
2022-07-30T00:03:52.687Z,1.98
2022-07-30T00:06:21.003Z,2.05
2022-07-30T00:08:48.994Z,2.28
2022-07-30T00:11:17.426Z,2.20
2022-07-30T00:13:45.486Z,2.20
2022-07-30T00:16:14.908Z,2.38
2022-07-30T00:18:43.139Z,1.83
2022-07-30T00:21:11.361Z,2.13
2022-07-30T00:23:51.178Z,2.00
2022-07-30T00:26:31.663Z,2.65
2022-07-30T00:29:00.164Z,2.40
2022-07-30T00:31:29.660Z,2.17
2022-07-30T00:33:58.454Z,2.00
2022-07-30T00:36:28.267Z,2.17
2022-07-30T00:38:56.681Z,1.90
2022-07-30T00:41:28.369Z,1.98
2022-07-30T00:43:56.832Z,2.17
2022-07-30T00:46:25.413Z,2.08
2022-07-30T00:48:56.480Z,2.30
2022-07-30T00:51:25.839Z,2.30
2022-07-30T00:53:55.420Z,2.78
2022-07-30T00:56:25.871Z,2.83
2022-07-30T00:58:53.965Z,2.70
2022-07-30T01:01:25.764Z,2.70
2022-07-30T01:03:56.127Z,2.28
2022-07-30T01:06:24.981Z,2.35
2022-07-30T01:08:54.352Z,2.33
2022-07-30T01:11:27.499Z,3.10
2022-07-30T01:13:55.834Z,2.42
2022-07-30T01:16:25.512Z,2.08
2022-07-30T01:19:14.939Z,2.53
2022-07-30T01:21:50.397Z,2.30
2022-07-30T01:24:28.685Z,2.15
2022-07-30T01:27:01.081Z,2.45
2022-07-30T01:29:39.512Z,2.67
2022-07-30T01:32:12.740Z,2.40
2022-07-30T01:34:42.065Z,3.05
2022-07-30T01:37:12.945Z,2.22
2022-07-30T01:39:41.616Z,2.35
2022-07-30T01:42:15.734Z,2.53
2022-07-30T01:44:46.910Z,2.50
2022-07-30T01:47:17.796Z,2.38
2022-07-30T01:49:48.975Z,2.17
2022-07-30T01:52:39.216Z,2.35
2022-07-30T01:55:16.549Z,2.13
2022-07-30T01:58:10.052Z,2.33
2022-07-30T02:01:02.701Z,2.50
2022-07-30T02:03:31.604Z,2.22
2022-07-30T02:06:07.342Z,2.10
2022-07-30T02:08:41.434Z,2.25
2022-07-30T02:11:11.117Z,2.30
2022-07-30T02:13:46.202Z,2.58
2022-07-30T02:16:17.645Z,2.45
2022-07-30T02:19:01.069Z,2.97
2022-07-30T02:21:38.594Z,2.20
2022-07-30T02:24:09.403Z,2.38
2022-07-30T02:26:41.375Z,2.38
2022-07-30T02:29:16.678Z,2.22
2022-07-30T02:31:45.530Z,2.50
2022-07-30T02:34:16.780Z,2.53
2022-07-30T02:36:47.127Z,2.25
2022-07-30T02:39:16.599Z,2.10
2022-07-30T02:41:49.889Z,2.17
2022-07-30T02:44:42.106Z,1.98
2022-07-30T02:47:12.397Z,2.50
2022-07-30T02:49:44.556Z,2.33
2022-07-30T02:52:14.947Z,2.20
2022-07-30T02:54:45.314Z,2.38
2022-07-30T02:57:16.396Z,2.25
2022-07-30T02:59:48.833Z,1.88
2022-07-30T03:02:18.664Z,2.22
2022-07-30T03:04:58.885Z,2.50
2022-07-30T03:07:49.667Z,2.20
2022-07-30T03:10:22.367Z,2.40
2022-07-30T03:12:53.752Z,2.53
2022-07-30T03:15:23.409Z,2.42
2022-07-30T03:17:57.441Z,2.40
2022-07-30T03:20:37.579Z,2.20
2022-07-30T03:23:13.453Z,2.35
2022-07-30T03:25:43.393Z,2.38
2022-07-30T03:28:21.054Z,2.45
2022-07-30T03:30:52.287Z,2.30
2022-07-30T03:33:41.143Z,2.17
2022-07-30T03:36:10.877Z,2.20
2022-07-30T03:38:42.529Z,2.42
2022-07-30T03:41:12.828Z,2.63
2022-07-30T03:43:43.236Z,2.40
2022-07-30T03:46:14.623Z,2.38
2022-07-30T03:49:02.733Z,2.08
2022-07-30T03:51:34.330Z,2.08
2022-07-30T03:54:04.477Z,2.22
2022-07-30T03:56:32.967Z,2.20
2022-07-30T03:59:01.370Z,2.10
2022-07-30T04:01:30.859Z,2.10
2022-07-30T04:04:05.806Z,2.40
2022-07-30T04:06:36.468Z,2.50
2022-07-30T04:09:04.519Z,2.17
2022-07-30T04:11:41.560Z,2.60
2022-07-30T04:14:10.066Z,2.42
2022-07-30T04:16:45.541Z,2.30
2022-07-30T04:19:19.497Z,2.42
2022-07-30T04:21:49.055Z,2.55
2022-07-30T04:24:18.039Z,1.90
2022-07-30T04:26:47.382Z,2.00
2022-07-30T04:29:18.045Z,2.33
2022-07-30T04:31:48.693Z,1.90
2022-07-30T04:34:17.197Z,2.17
2022-07-30T04:36:45.417Z,2.00
2022-07-30T04:39:13.918Z,1.90
2022-07-30T04:41:49.515Z,1.65
2022-07-30T04:44:19.259Z,2.30
2022-07-30T04:46:49.050Z,1.88
2022-07-30T04:49:20.042Z,1.75
2022-07-30T04:51:48.609Z,1.52
2022-07-30T04:54:18.983Z,1.70
2022-07-30T04:56:53.377Z,1.60
2022-07-30T04:59:24.857Z,1.77
2022-07-30T05:01:57.289Z,1.80
2022-07-30T05:04:26.347Z,1.90
2022-07-30T05:06:55.727Z,1.88
2022-07-30T05:09:24.070Z,1.50
2022-07-30T05:11:53.056Z,1.58
2022-07-30T05:14:21.708Z,1.48
2022-07-30T05:16:49.804Z,1.70
2022-07-30T05:19:20.121Z,1.80
2022-07-30T05:21:48.070Z,1.67
2022-07-30T05:24:16.443Z,1.50
2022-07-30T05:26:44.816Z,1.67
2022-07-30T05:29:17.256Z,1.50
2022-07-30T05:31:48.403Z,1.58
2022-07-30T05:34:17.990Z,1.17
2022-07-30T05:36:46.142Z,1.10
2022-07-30T05:39:14.717Z,1.48
2022-07-30T05:41:42.651Z,1.60
2022-07-30T05:44:10.598Z,1.17
2022-07-30T05:46:38.691Z,1.30
2022-07-30T05:49:07.289Z,1.20
2022-07-30T05:51:36.730Z,1.42
2022-07-30T05:54:05.226Z,1.38
2022-07-30T05:56:33.226Z,1.13
2022-07-30T05:59:01.440Z,1.42
2022-07-30T06:01:29.429Z,1.20
2022-07-30T06:03:57.503Z,1.40
2022-07-30T06:06:25.869Z,1.15
2022-07-30T06:08:55.149Z,1.30
2022-07-30T06:11:23.087Z,1.25
2022-07-30T06:13:51.091Z,1.10
2022-07-30T06:16:19.143Z,0.98
2022-07-30T06:18:47.208Z,1.00
2022-07-30T06:21:15.093Z,1.20
2022-07-30T06:23:43.085Z,1.00
2022-07-30T06:26:12.641Z,1.20
2022-07-30T06:28:40.648Z,1.20
2022-07-30T06:31:08.901Z,1.30
2022-07-30T06:33:37.143Z,1.40
2022-07-30T06:36:05.690Z,1.17
2022-07-30T06:38:33.973Z,1.23
2022-07-30T06:41:04.572Z,1.20
2022-07-30T06:43:34.427Z,1.23
2022-07-30T06:46:03.434Z,1.13
2022-07-30T06:48:32.479Z,1.63
2022-07-30T06:51:00.659Z,1.20
2022-07-30T06:53:28.916Z,1.33
2022-07-30T06:56:00.420Z,0.90
2022-07-30T06:58:29.280Z,1.20
2022-07-30T07:01:00.291Z,0.90
2022-07-30T07:03:39.944Z,1.30
2022-07-30T07:06:08.359Z,1.10
2022-07-30T07:08:38.520Z,0.95
2022-07-30T07:11:09.276Z,0.80
2022-07-30T07:13:37.211Z,1.00
2022-07-30T07:16:07.071Z,1.10
2022-07-30T07:18:34.990Z,1.08
2022-07-30T07:21:02.968Z,1.00
2022-07-30T07:23:41.615Z,1.00
2022-07-30T07:26:11.171Z,1.10
2022-07-30T07:28:40.095Z,0.95
2022-07-30T07:31:10.211Z,0.90
2022-07-30T07:33:39.404Z,1.00
2022-07-30T07:36:08.011Z,1.20
2022-07-30T07:38:36.627Z,0.85
2022-07-30T07:41:05.418Z,1.08
2022-07-30T07:43:33.683Z,1.00
2022-07-30T07:46:01.733Z,1.15
2022-07-30T07:48:31.301Z,1.00
2022-07-30T07:51:00.575Z,1.10
2022-07-30T07:53:28.871Z,0.88
2022-07-30T07:55:57.283Z,0.82
2022-07-30T07:58:26.499Z,0.75
2022-07-30T08:00:55.639Z,0.90
2022-07-30T08:03:23.758Z,0.80
2022-07-30T08:05:58.209Z,1.00
2022-07-30T08:08:36.497Z,1.10
2022-07-30T08:11:05.708Z,0.80
2022-07-30T08:13:52.683Z,1.08
2022-07-30T08:16:21.547Z,1.10
2022-07-30T08:18:49.778Z,1.10
2022-07-30T08:21:19.278Z,0.80
2022-07-30T08:23:48.409Z,0.75
2022-07-30T08:26:16.460Z,1.15
2022-07-30T08:28:45.674Z,0.90
2022-07-30T08:31:13.919Z,0.88
2022-07-30T08:33:42.157Z,1.38
2022-07-30T08:36:10.406Z,1.15
2022-07-30T08:38:40.651Z,1.10
2022-07-30T08:41:08.966Z,1.00
2022-07-30T08:43:37.548Z,1.10
2022-07-30T08:46:08.117Z,1.00
2022-07-30T08:48:37.669Z,1.00
2022-07-30T08:51:06.368Z,0.90
2022-07-30T08:53:35.428Z,1.00
2022-07-30T08:56:05.994Z,1.00
2022-07-30T08:58:35.103Z,1.45
2022-07-30T09:01:07.230Z,0.85
2022-07-30T09:03:44.044Z,0.90
2022-07-30T09:06:13.299Z,0.95
2022-07-30T09:08:42.490Z,0.98
2022-07-30T09:11:12.148Z,1.25
2022-07-30T09:13:44.686Z,1.10
2022-07-30T09:16:21.573Z,1.00
2022-07-30T09:18:50.169Z,1.15
2022-07-30T09:21:20.873Z,1.00
2022-07-30T09:24:02.478Z,1.23
2022-07-30T09:26:33.934Z,1.15
2022-07-30T09:29:17.353Z,1.08
2022-07-30T09:31:56.372Z,1.00
2022-07-30T09:34:32.242Z,0.80
2022-07-30T09:37:01.621Z,1.15
2022-07-30T09:39:31.298Z,1.00
2022-07-30T09:42:01.500Z,1.08
2022-07-30T09:44:31.803Z,0.80
2022-07-30T09:47:01.372Z,1.00
2022-07-30T09:49:30.403Z,1.23
2022-07-30T09:51:58.706Z,0.90
2022-07-30T09:54:51.281Z,1.08
2022-07-30T09:57:26.026Z,1.02
2022-07-30T09:59:57.578Z,1.00
2022-07-30T10:02:32.503Z,1.05
2022-07-30T10:05:14.196Z,0.80
2022-07-30T10:07:51.228Z,1.00
2022-07-30T10:10:25.748Z,0.82
2022-07-30T10:13:00.942Z,0.93
2022-07-30T10:15:32.742Z,1.10
2022-07-30T10:18:06.371Z,0.82
2022-07-30T10:20:35.616Z,0.82
2022-07-30T10:23:09.660Z,1.13
2022-07-30T10:25:49.618Z,1.05
2022-07-30T10:28:25.708Z,1.25
2022-07-30T10:30:54.881Z,1.00
2022-07-30T10:33:34.548Z,1.00
2022-07-30T10:36:06.160Z,1.02
2022-07-30T10:38:41.517Z,1.00
2022-07-30T10:41:22.217Z,0.80
2022-07-30T10:44:29.345Z,0.90
2022-07-30T10:47:07.126Z,0.88
2022-07-30T10:49:41.598Z,0.88
2022-07-30T10:52:12.387Z,1.10
2022-07-30T10:54:45.228Z,1.20
2022-07-30T10:57:22.669Z,1.08
2022-07-30T11:00:15.415Z,1.20
2022-07-30T11:03:17.134Z,0.95
2022-07-30T11:05:48.709Z,0.98
2022-07-30T11:08:37.203Z,1.35
2022-07-30T11:12:16.124Z,1.10
2022-07-30T11:15:06.220Z,1.08
2022-07-30T11:18:01.892Z,1.10
2022-07-30T11:20:33.828Z,1.02
2022-07-30T11:23:40.063Z,1.05
2022-07-30T11:26:13.964Z,0.98
2022-07-30T11:28:44.735Z,1.20
2022-07-30T11:31:55.042Z,1.63
2022-07-30T11:34:32.737Z,1.20
2022-07-30T11:37:19.226Z,1.27
2022-07-30T11:40:13.933Z,1.13
2022-07-30T11:42:43.651Z,1.15
2022-07-30T11:45:30.366Z,1.58
2022-07-30T11:48:01.330Z,1.33
2022-07-30T11:50:33.270Z,1.30
2022-07-30T11:53:02.556Z,1.20
2022-07-30T11:55:32.624Z,1.33
2022-07-30T11:58:02.969Z,1.50
2022-07-30T12:00:38.204Z,1.45
2022-07-30T12:03:11.654Z,1.10
2022-07-30T12:05:43.061Z,1.40
2022-07-30T12:08:35.135Z,1.50
2022-07-30T12:11:02.869Z,1.38
2022-07-30T12:13:45.369Z,2.15
2022-07-30T12:16:17.495Z,1.20
2022-07-30T12:18:47.406Z,1.33
2022-07-30T12:21:17.598Z,1.33
2022-07-30T12:23:55.584Z,1.20
2022-07-30T12:26:29.470Z,1.00
2022-07-30T12:29:05.199Z,1.27
2022-07-30T12:31:39.987Z,1.60
2022-07-30T12:34:20.904Z,1.38
2022-07-30T12:36:50.481Z,1.40
2022-07-30T12:39:23.007Z,1.00
2022-07-30T12:41:53.283Z,1.20
2022-07-30T12:44:38.911Z,0.98
2022-07-30T12:47:19.387Z,1.10
2022-07-30T12:49:49.693Z,1.45
2022-07-30T12:52:28.589Z,0.98
2022-07-30T12:55:09.781Z,1.13
2022-07-30T12:57:57.842Z,1.38
2022-07-30T13:00:29.219Z,1.10
2022-07-30T13:02:58.224Z,1.10
2022-07-30T13:05:48.755Z,1.50
2022-07-30T13:08:18.966Z,1.10
2022-07-30T13:10:59.741Z,1.10
2022-07-30T13:13:28.530Z,1.38
2022-07-30T13:16:01.881Z,0.90
2022-07-30T13:18:31.105Z,1.08
2022-07-30T13:21:01.027Z,1.33
2022-07-30T13:23:31.709Z,1.63
2022-07-30T13:26:01.352Z,1.40
2022-07-30T13:28:32.221Z,1.20
2022-07-30T13:31:00.906Z,1.25
2022-07-30T13:33:29.796Z,1.35
2022-07-30T13:35:59.472Z,1.20
2022-07-30T13:38:31.271Z,1.30
2022-07-30T13:41:02.825Z,1.48
2022-07-30T13:43:32.041Z,1.60
2022-07-30T13:46:03.228Z,1.60
2022-07-30T13:48:31.639Z,1.33
2022-07-30T13:51:02.139Z,1.30
2022-07-30T13:53:31.777Z,1.45
2022-07-30T13:56:04.489Z,1.30
2022-07-30T13:58:36.237Z,1.55
2022-07-30T14:01:07.495Z,1.25
2022-07-30T14:03:36.251Z,1.23
2022-07-30T14:06:10.974Z,1.42
2022-07-30T14:08:41.110Z,1.17
2022-07-30T14:11:09.557Z,1.00
2022-07-30T14:13:38.052Z,1.50
2022-07-30T14:16:17.875Z,1.00
2022-07-30T14:18:55.554Z,1.25
2022-07-30T14:21:23.829Z,1.30
2022-07-30T14:23:53.673Z,1.30
2022-07-30T14:26:21.858Z,1.20
2022-07-30T14:28:49.858Z,1.30
2022-07-30T14:31:19.451Z,1.33
2022-07-30T14:33:47.712Z,1.30
2022-07-30T14:36:16.161Z,1.52
2022-07-30T14:38:44.327Z,1.38
2022-07-30T14:41:14.016Z,1.27
2022-07-30T14:43:42.007Z,1.38
2022-07-30T14:46:13.164Z,1.40
2022-07-30T14:48:41.313Z,1.30
2022-07-30T14:51:17.635Z,1.40
2022-07-30T14:53:47.976Z,1.60
2022-07-30T14:56:17.775Z,1.20
2022-07-30T14:58:46.035Z,1.15
2022-07-30T15:01:15.852Z,1.60
2022-07-30T15:03:45.317Z,1.85
2022-07-30T15:06:15.305Z,1.73
2022-07-30T15:08:46.239Z,1.65
2022-07-30T15:11:14.536Z,2.10
2022-07-30T15:13:50.493Z,1.35
2022-07-30T15:16:19.226Z,1.75
2022-07-30T15:18:47.408Z,1.70
2022-07-30T15:21:15.801Z,1.80
2022-07-30T15:23:43.940Z,1.42
2022-07-30T15:26:12.233Z,1.92
2022-07-30T15:28:40.416Z,1.85
2022-07-30T15:31:12.709Z,1.63
2022-07-30T15:33:44.185Z,1.55
2022-07-30T15:36:13.464Z,1.63
2022-07-30T15:38:42.095Z,1.90
2022-07-30T15:41:13.902Z,1.90
2022-07-30T15:43:47.709Z,1.50
2022-07-30T15:46:17.090Z,1.85
2022-07-30T15:48:45.274Z,2.00
2022-07-30T15:51:13.385Z,1.88
2022-07-30T15:53:41.907Z,2.30
2022-07-30T15:56:10.708Z,1.70
2022-07-30T15:58:43.251Z,1.85
2022-07-30T16:01:12.814Z,1.60
2022-07-30T16:03:46.126Z,1.80
2022-07-30T16:06:14.622Z,2.10
2022-07-30T16:08:42.514Z,1.55
2022-07-30T16:11:11.227Z,1.70
2022-07-30T16:13:40.856Z,2.03
2022-07-30T16:16:09.458Z,2.28
2022-07-30T16:18:37.457Z,1.80
2022-07-30T16:21:06.776Z,1.90
2022-07-30T16:23:36.399Z,2.40
2022-07-30T16:26:05.897Z,2.08
2022-07-30T16:28:34.092Z,2.10
2022-07-30T16:31:02.437Z,2.05
2022-07-30T16:33:30.512Z,1.83
2022-07-30T16:35:58.672Z,2.10
2022-07-30T16:38:29.799Z,1.80
2022-07-30T16:40:58.097Z,2.17
2022-07-30T16:43:26.514Z,2.00
2022-07-30T16:45:54.679Z,2.13
2022-07-30T16:48:22.611Z,2.13
2022-07-30T16:50:50.984Z,2.05
2022-07-30T16:53:19.057Z,1.95
2022-07-30T16:55:48.720Z,2.08
2022-07-30T16:58:16.908Z,1.85
2022-07-30T17:00:45.159Z,2.10
2022-07-30T17:03:19.925Z,2.00
2022-07-30T17:05:48.563Z,2.90
2022-07-30T17:08:17.875Z,2.83
2022-07-30T17:10:46.173Z,1.92
2022-07-30T17:13:17.688Z,1.80
2022-07-30T17:15:46.898Z,2.03
2022-07-30T17:18:15.898Z,2.65
2022-07-30T17:20:44.527Z,2.08
2022-07-30T17:23:12.675Z,2.50
2022-07-30T17:25:40.701Z,2.03
2022-07-30T17:28:08.852Z,2.28
2022-07-30T17:30:41.173Z,1.95
2022-07-30T17:33:11.056Z,1.77
2022-07-30T17:35:40.025Z,2.03
2022-07-30T17:38:08.364Z,1.90
2022-07-30T17:40:36.656Z,1.88
2022-07-30T17:43:05.602Z,2.00
2022-07-30T17:45:35.808Z,1.85
2022-07-30T17:48:06.450Z,1.55
2022-07-30T17:50:35.480Z,2.05
2022-07-30T17:53:04.991Z,2.03
2022-07-30T17:55:34.981Z,2.10
2022-07-30T17:58:03.517Z,1.92
2022-07-30T18:00:31.864Z,1.90
2022-07-30T18:03:00.259Z,1.95
2022-07-30T18:05:29.950Z,2.25
2022-07-30T18:07:57.916Z,2.42
2022-07-30T18:10:26.021Z,2.35
2022-07-30T18:12:54.350Z,2.25
2022-07-30T18:15:23.031Z,2.28
2022-07-30T18:17:51.058Z,2.20
2022-07-30T18:20:19.311Z,2.40
2022-07-30T18:22:51.418Z,2.45
2022-07-30T18:25:20.406Z,2.20
2022-07-30T18:27:52.045Z,2.40
2022-07-30T18:30:20.116Z,2.08
2022-07-30T18:32:48.934Z,2.40
2022-07-30T18:35:17.344Z,2.45
2022-07-30T18:37:45.955Z,2.20
2022-07-30T18:40:23.686Z,1.80
2022-07-30T18:42:52.242Z,1.88
2022-07-30T18:45:20.406Z,2.38
2022-07-30T18:47:48.770Z,2.10
2022-07-30T18:50:17.480Z,2.28
2022-07-30T18:52:45.754Z,2.50
2022-07-30T18:55:17.266Z,1.92
2022-07-30T18:57:45.361Z,2.58
2022-07-30T19:00:34.850Z,2.40
2022-07-30T19:03:03.250Z,2.10
2022-07-30T19:05:31.227Z,1.95
2022-07-30T19:07:59.259Z,2.53
2022-07-30T19:10:28.861Z,2.00
2022-07-30T19:12:57.060Z,2.55
2022-07-30T19:15:25.627Z,2.33
2022-07-30T19:17:53.774Z,2.08
2022-07-30T19:20:23.359Z,2.40
2022-07-30T19:22:53.359Z,1.95
2022-07-30T19:25:21.894Z,2.25
2022-07-30T19:27:51.418Z,2.10
2022-07-30T19:30:19.585Z,1.90
2022-07-30T19:32:47.669Z,2.00
2022-07-30T19:35:15.813Z,2.20
2022-07-30T19:37:44.040Z,1.85
2022-07-30T19:40:14.793Z,2.00
2022-07-30T19:42:43.726Z,2.08
2022-07-30T19:45:47.402Z,2.13
2022-07-30T19:48:29.644Z,1.70
2022-07-30T19:51:01.341Z,1.90
2022-07-30T19:53:31.423Z,2.15
2022-07-30T19:56:08.372Z,2.60
2022-07-30T19:58:40.315Z,2.70
2022-07-30T20:01:12.415Z,2.60
2022-07-30T20:03:40.547Z,2.20
2022-07-30T20:06:08.666Z,2.28
2022-07-30T20:08:44.583Z,2.40
2022-07-30T20:11:21.242Z,2.55
2022-07-30T20:14:01.131Z,2.60
2022-07-30T20:16:30.429Z,2.42
2022-07-30T20:18:59.344Z,2.45
2022-07-30T20:21:54.255Z,2.35
2022-07-30T20:24:17.598Z,2.50
2022-07-30T20:26:45.640Z,1.90
2022-07-30T20:29:19.365Z,1.80
2022-07-30T20:31:50.299Z,1.90
2022-07-30T20:34:20.672Z,2.10
2022-07-30T20:36:52.153Z,2.03
2022-07-30T20:39:21.933Z,1.50
2022-07-30T20:41:50.034Z,1.60
2022-07-30T20:44:23.587Z,1.60
2022-07-30T20:46:53.234Z,1.33
2022-07-30T20:49:28.924Z,1.38
2022-07-30T20:52:03.582Z,1.40
2022-07-30T20:54:31.893Z,1.40
2022-07-30T20:57:01.580Z,1.17
2022-07-30T20:59:31.867Z,1.50
2022-07-30T21:02:01.357Z,1.40
2022-07-30T21:04:30.525Z,1.15
2022-07-30T21:06:58.554Z,0.90
2022-07-30T21:09:28.961Z,1.13
2022-07-30T21:12:16.880Z,1.25
2022-07-30T21:14:45.136Z,1.58
2022-07-30T21:17:18.274Z,1.20
2022-07-30T21:19:46.255Z,1.60
2022-07-30T21:22:14.294Z,1.40
2022-07-30T21:24:42.228Z,1.10
2022-07-30T21:27:10.351Z,1.40
2022-07-30T21:29:41.227Z,1.95
2022-07-30T21:32:09.187Z,1.40
2022-07-30T21:34:41.885Z,1.25
2022-07-30T21:37:10.401Z,1.30
2022-07-30T21:39:41.642Z,1.60
2022-07-30T21:42:09.725Z,1.33
2022-07-30T21:44:37.779Z,1.20
2022-07-30T21:47:10.143Z,1.30
2022-07-30T21:49:40.730Z,1.30
2022-07-30T21:52:12.999Z,1.73
2022-07-30T21:54:48.069Z,1.35
2022-07-30T21:57:23.181Z,1.40
2022-07-30T22:02:53.966Z,1.35
2022-07-30T22:05:38.766Z,1.42
2022-07-30T22:08:08.541Z,1.50
2022-07-30T22:10:38.946Z,1.30
2022-07-30T22:13:10.136Z,1.58
2022-07-30T22:15:38.907Z,1.50
2022-07-30T22:18:07.867Z,1.30
2022-07-30T22:20:37.523Z,1.45
2022-07-30T22:23:07.769Z,1.38
2022-07-30T22:25:43.787Z,1.58
2022-07-30T22:28:13.493Z,1.55
2022-07-30T22:30:41.560Z,1.60
2022-07-30T22:33:11.489Z,1.60
2022-07-30T22:35:46.514Z,1.35
2022-07-30T22:38:15.490Z,1.80
2022-07-30T22:40:43.699Z,2.25
2022-07-30T22:43:13.328Z,2.08
2022-07-30T22:45:48.573Z,1.95
2022-07-30T22:48:19.682Z,1.88
2022-07-30T22:50:55.523Z,1.95
2022-07-30T22:54:02.849Z,2.03
2022-07-30T22:56:15.536Z,1.60
2022-07-30T22:58:44.270Z,1.98
2022-07-30T23:01:12.205Z,1.98
2022-07-30T23:03:42.086Z,1.95
2022-07-30T23:06:14.561Z,2.20
2022-07-30T23:08:42.865Z,2.55
2022-07-30T23:11:11.057Z,2.20
2022-07-30T23:12:31.256Z,1.35
2022-07-30T23:13:40.080Z,1.88
2022-07-30T23:16:08.081Z,2.72
2022-07-30T23:18:36.328Z,2.67
2022-07-30T23:21:04.741Z,2.70
2022-07-30T23:23:35.660Z,2.90
2022-07-30T23:26:04.030Z,2.65
2022-07-30T23:28:32.021Z,2.50
2022-07-30T23:31:00.242Z,2.35
2022-07-30T23:33:28.429Z,2.60
2022-07-30T23:35:56.647Z,2.47
2022-07-30T23:38:25.301Z,2.45
2022-07-30T23:40:54.620Z,2.20
2022-07-30T23:43:22.721Z,3.10
2022-07-30T23:45:50.654Z,2.38
2022-07-30T23:48:18.555Z,2.40
2022-07-30T23:50:46.547Z,2.30
2022-07-30T23:53:14.657Z,2.30
2022-07-30T23:55:42.804Z,2.00
2022-07-30T23:58:12.187Z,2.15
